Akeley, Minnesota
Current Conditions -  °F | °C
As of 11:35 PM on Thursday 27 Nov 2014 (Local Time) from KY49 Reporting Station
Light Snow Light Snow  
Wind Chill: -3°   Ceiling: 3200
Heat Index:   Visibility: 5mi
Dew Point: -2°   Wind: 5mph
Humidity: 70%   Direction: 170°S
Pressure: 30.15"   Gusts: NA
Location:  47°N, 94.73°W
Report Text: KY49 280535Z AUTO 17004KT 5SM -SN SCT026 BKN032 OVC042 M15/M19 A3015 RMK AO2 T11471190
Loading
Personal Weather Stations






























Interactive Weather Map New forecast layout! Learn more

10-Day Weather Forecast

Advertisements
Track Severe Weather on mobile